PWSweather.com
Personal Weather Stations
Station Observations
RIORANCHO
Corrales Heights, Rio Rancho, NM 87124

Corrales HeightsRio Rancho, NM 87124

Lat: 35.241928, Lon: -106.647095

Elevation: 5297

Station Type: Davis Vantage Pro 2 Plus

http://www.weatherriorancho.com

High Low Average
Temperature 49.3°F9.6°C 40.8°F4.9°C 43.9°F6.6°C
Dew Point 42.1°F5.6°C 34.3°F1.3°C 39.8°F4.3°C
Winds 4.6 mph 7.4 kmh Calm Calm 1.0 mph SSW1.6 kmh SSW
Wind Gusts 6.9 mph11.1 kmh -- 2.0 mph3.2 kmh
Humidity 95% 74% 86%
Pressure 30.18 in1022.0 mb 30.05 in1017.6 mb -
Precipitation 0.12 in3.0 mm - -
Hour Temp Dew Point Humidity Winds Wind Gusts Pressure Precip Precip Rate Daily Precip Total
12:00 AM 42.7°F5.9°C 39.7°F4.3°C 89% Calm Calm -- 30.11 in1019.6 mb - 0.00 in0.0 mm 0.00 in0.0 mm
12:10 AM 42.7°F5.9°C 39.7°F4.3°C 89% Calm Calm -- 30.11 in1019.6 mb - 0.00 in0.0 mm 0.00 in0.0 mm
12:20 AM 42.7°F5.9°C 39.7°F4.3°C 89% Calm Calm -- 30.11 in1019.6 mb - 0.01 in0.3 mm 0.01 in0.3 mm
12:30 AM 42.6°F5.9°C 39.6°F4.2°C 89% Calm Calm -- 30.11 in1019.6 mb - 0.00 in0.0 mm 0.01 in0.3 mm
12:40 AM 42.7°F5.9°C 39.7°F4.3°C 89% Calm Calm -- 30.10 in1019.3 mb - 0.00 in0.0 mm 0.01 in0.3 mm
12:50 AM 42.5°F5.8°C 39.5°F4.2°C 89% Calm Calm 1.2 mph1.9 kmh 30.10 in1019.3 mb - 0.01 in0.3 mm 0.02 in0.5 mm
01:00 AM 42.4°F5.8°C 39.7°F4.3°C 90% Calm Calm -- 30.10 in1019.3 mb - 0.00 in0.0 mm 0.02 in0.5 mm
01:10 AM 42.3°F5.7°C 39.6°F4.2°C 90% Calm Calm -- 30.10 in1019.3 mb - 0.00 in0.0 mm 0.02 in0.5 mm
01:20 AM 42.3°F5.7°C 39.6°F4.2°C 90% Calm Calm -- 30.10 in1019.3 mb - 0.00 in0.0 mm 0.02 in0.5 mm
01:30 AM 42.1°F5.6°C 39.4°F4.1°C 90% Calm Calm -- 30.10 in1019.3 mb - 0.00 in0.0 mm 0.02 in0.5 mm
01:40 AM 42.1°F5.6°C 39.4°F4.1°C 90% Calm Calm -- 30.10 in1019.3 mb - 0.00 in0.0 mm 0.02 in0.5 mm
01:50 AM 42.0°F5.6°C 39.3°F4.1°C 90% Calm Calm -- 30.10 in1019.3 mb - 0.00 in0.0 mm 0.02 in0.5 mm
02:00 AM 42.1°F5.6°C 39.4°F4.1°C 90% Calm Calm -- 30.10 in1019.3 mb - 0.00 in0.0 mm 0.02 in0.5 mm
02:10 AM 42.1°F5.6°C 39.4°F4.1°C 90% Calm Calm 1.2 mph1.9 kmh 30.10 in1019.3 mb - 0.00 in0.0 mm 0.02 in0.5 mm
02:20 AM 42.0°F5.6°C 39.3°F4.1°C 90% 1.2 mph WNW1.9 kmh WNW 3.5 mph5.6 kmh 30.10 in1019.3 mb - 0.00 in0.0 mm 0.02 in0.5 mm
02:30 AM 42.0°F5.6°C 39.3°F4.1°C 90% 1.2 mph WNW1.9 kmh WNW 3.5 mph5.6 kmh 30.10 in1019.3 mb - 0.01 in0.3 mm 0.03 in0.8 mm
02:40 AM 42.0°F5.6°C 39.0°F3.9°C 89% 1.2 mph WNW1.9 kmh WNW 3.5 mph5.6 kmh 30.09 in1019.0 mb - 0.00 in0.0 mm 0.03 in0.8 mm
02:50 AM 41.9°F5.5°C 38.9°F3.8°C 89% Calm Calm -- 30.09 in1019.0 mb - 0.00 in0.0 mm 0.03 in0.8 mm
03:00 AM 41.9°F5.5°C 39.2°F4.0°C 90% Calm Calm -- 30.09 in1019.0 mb - 0.01 in0.3 mm 0.04 in1.0 mm
03:10 AM 41.9°F5.5°C 39.2°F4.0°C 90% Calm Calm -- 30.08 in1018.6 mb - 0.00 in0.0 mm 0.04 in1.0 mm
03:20 AM 42.0°F5.6°C 39.3°F4.1°C 90% Calm Calm -- 30.08 in1018.6 mb - 0.00 in0.0 mm 0.04 in1.0 mm
03:30 AM 41.8°F5.4°C 39.1°F3.9°C 90% Calm Calm -- 30.08 in1018.6 mb - 0.00 in0.0 mm 0.04 in1.0 mm
03:40 AM 41.7°F5.4°C 39.3°F4.1°C 91% Calm Calm -- 30.08 in1018.6 mb - 0.00 in0.0 mm 0.04 in1.0 mm
03:50 AM 41.6°F5.3°C 39.2°F4.0°C 91% Calm Calm -- 30.08 in1018.6 mb - 0.00 in0.0 mm 0.04 in1.0 mm
04:00 AM 41.6°F5.3°C 39.2°F4.0°C 91% Calm Calm -- 30.08 in1018.6 mb - 0.00 in0.0 mm 0.04 in1.0 mm
04:10 AM 41.6°F5.3°C 39.1°F3.9°C 91% Calm Calm -- 30.08 in1018.6 mb - 0.01 in0.3 mm 0.05 in1.3 mm
04:20 AM 41.5°F5.3°C 39.1°F3.9°C 91% Calm Calm -- 30.07 in1018.3 mb - 0.00 in0.0 mm 0.05 in1.3 mm
04:30 AM 41.5°F5.3°C 39.1°F3.9°C 91% Calm Calm -- 30.07 in1018.3 mb - 0.00 in0.0 mm 0.05 in1.3 mm
04:40 AM 41.5°F5.3°C 39.1°F3.9°C 91% Calm Calm -- 30.07 in1018.3 mb - 0.01 in0.3 mm 0.06 in1.5 mm
04:50 AM 41.5°F5.3°C 39.3°F4.1°C 92% Calm Calm 1.2 mph1.9 kmh 30.07 in1018.3 mb - 0.00 in0.0 mm 0.06 in1.5 mm
05:00 AM 41.3°F5.2°C 39.2°F4.0°C 92% 1.2 mph WNW1.9 kmh WNW 1.2 mph1.9 kmh 30.06 in1017.9 mb - 0.00 in0.0 mm 0.06 in1.5 mm
05:10 AM 41.1°F5.1°C 39.2°F4.0°C 93% Calm Calm 1.2 mph1.9 kmh 30.07 in1018.3 mb - 0.00 in0.0 mm 0.06 in1.5 mm
05:20 AM 41.0°F5.0°C 39.1°F3.9°C 93% Calm Calm -- 30.07 in1018.3 mb - 0.00 in0.0 mm 0.06 in1.5 mm
05:30 AM 41.1°F5.1°C 39.2°F4.0°C 93% Calm Calm -- 30.07 in1018.3 mb - 0.00 in0.0 mm 0.06 in1.5 mm
05:40 AM 41.0°F5.0°C 39.1°F3.9°C 93% Calm Calm -- 30.06 in1017.9 mb - 0.00 in0.0 mm 0.06 in1.5 mm
05:50 AM 41.1°F5.1°C 39.2°F4.0°C 93% Calm Calm 1.2 mph1.9 kmh 30.06 in1017.9 mb - 0.00 in0.0 mm 0.06 in1.5 mm
06:00 AM 41.5°F5.3°C 39.6°F4.2°C 93% Calm Calm 2.3 mph3.7 kmh 30.07 in1018.3 mb - 0.00 in0.0 mm 0.06 in1.5 mm
06:10 AM 41.9°F5.5°C 40.3°F4.6°C 94% 1.2 mph WNW1.9 kmh WNW 4.6 mph7.4 kmh 30.07 in1018.3 mb - 0.00 in0.0 mm 0.06 in1.5 mm
06:20 AM 42.0°F5.6°C 40.4°F4.7°C 94% Calm Calm 1.2 mph1.9 kmh 30.07 in1018.3 mb - 0.00 in0.0 mm 0.06 in1.5 mm
06:30 AM 42.0°F5.6°C 40.4°F4.7°C 94% Calm Calm -- 30.07 in1018.3 mb - 0.00 in0.0 mm 0.06 in1.5 mm
06:40 AM 42.0°F5.6°C 40.4°F4.7°C 94% Calm Calm -- 30.07 in1018.3 mb - 0.01 in0.3 mm 0.07 in1.8 mm
06:50 AM 42.0°F5.6°C 40.4°F4.7°C 94% 1.2 mph W1.9 kmh W 3.5 mph5.6 kmh 30.07 in1018.3 mb - 0.01 in0.3 mm 0.08 in2.0 mm
07:00 AM 42.0°F5.6°C 40.4°F4.7°C 94% Calm Calm -- 30.07 in1018.3 mb - 0.00 in0.0 mm 0.08 in2.0 mm
07:10 AM 42.0°F5.6°C 40.4°F4.7°C 94% Calm Calm -- 30.07 in1018.3 mb - 0.00 in0.0 mm 0.08 in2.0 mm
07:20 AM 42.0°F5.6°C 40.4°F4.7°C 94% Calm Calm 1.2 mph1.9 kmh 30.08 in1018.6 mb - 0.01 in0.3 mm 0.09 in2.3 mm
07:30 AM 41.9°F5.5°C 40.3°F4.6°C 94% Calm Calm -- 30.08 in1018.6 mb - 0.00 in0.0 mm 0.09 in2.3 mm
07:40 AM 42.0°F5.6°C 40.4°F4.7°C 94% Calm Calm 1.2 mph1.9 kmh 30.08 in1018.6 mb - 0.00 in0.0 mm 0.09 in2.3 mm
07:50 AM 42.1°F5.6°C 40.5°F4.7°C 94% Calm Calm 2.3 mph3.7 kmh 30.08 in1018.6 mb - 0.01 in0.3 mm 0.10 in2.5 mm
08:00 AM 42.2°F5.7°C 40.6°F4.8°C 94% Calm Calm -- 30.09 in1019.0 mb - 0.00 in0.0 mm 0.10 in2.5 mm
08:10 AM 42.3°F5.7°C 41.0°F5.0°C 95% 1.2 mph SSW1.9 kmh SSW 2.3 mph3.7 kmh 30.09 in1019.0 mb - 0.00 in0.0 mm 0.10 in2.5 mm
08:20 AM 42.3°F5.7°C 41.0°F5.0°C 95% Calm Calm -- 30.09 in1019.0 mb - 0.00 in0.0 mm 0.10 in2.5 mm
08:30 AM 42.4°F5.8°C 41.1°F5.1°C 95% Calm Calm 1.2 mph1.9 kmh 30.10 in1019.3 mb - 0.00 in0.0 mm 0.10 in2.5 mm
08:40 AM 42.5°F5.8°C 41.1°F5.1°C 95% 1.2 mph SSW1.9 kmh SSW 2.3 mph3.7 kmh 30.10 in1019.3 mb - 0.01 in0.3 mm 0.11 in2.8 mm
08:50 AM 42.3°F5.7°C 40.7°F4.8°C 94% 1.2 mph S1.9 kmh S 2.3 mph3.7 kmh 30.10 in1019.3 mb - 0.00 in0.0 mm 0.11 in2.8 mm
09:00 AM 42.3°F5.7°C 40.7°F4.8°C 94% 1.2 mph S1.9 kmh S 2.3 mph3.7 kmh 30.10 in1019.3 mb - 0.00 in0.0 mm 0.11 in2.8 mm
09:10 AM 42.4°F5.8°C 40.8°F4.9°C 94% 2.3 mph S3.7 kmh S 5.8 mph9.3 kmh 30.10 in1019.3 mb - 0.00 in0.0 mm 0.11 in2.8 mm
09:20 AM 42.5°F5.8°C 40.9°F4.9°C 94% 1.2 mph S1.9 kmh S 3.5 mph5.6 kmh 30.10 in1019.3 mb - 0.01 in0.3 mm 0.12 in3.0 mm
09:30 AM 42.7°F5.9°C 41.1°F5.1°C 94% 1.2 mph S1.9 kmh S 4.6 mph7.4 kmh 30.11 in1019.6 mb - 0.00 in0.0 mm 0.12 in3.0 mm
09:40 AM 42.9°F6.1°C 41.3°F5.2°C 94% 3.5 mph SSE5.6 kmh SSE 5.8 mph9.3 kmh 30.11 in1019.6 mb - 0.00 in0.0 mm 0.12 in3.0 mm
09:50 AM 42.9°F6.1°C 41.0°F5.0°C 93% 2.3 mph SSE3.7 kmh SSE 5.8 mph9.3 kmh 30.10 in1019.3 mb - 0.00 in0.0 mm 0.12 in3.0 mm
10:00 AM 43.2°F6.2°C 41.3°F5.2°C 93% 3.5 mph SSE5.6 kmh SSE 6.9 mph11.1 kmh 30.10 in1019.3 mb - 0.00 in0.0 mm 0.12 in3.0 mm
10:10 AM 43.3°F6.3°C 41.4°F5.2°C 93% 4.6 mph SE7.4 kmh SE 6.9 mph11.1 kmh 30.10 in1019.3 mb - 0.00 in0.0 mm 0.12 in3.0 mm
10:20 AM 43.5°F6.4°C 41.6°F5.3°C 93% 1.2 mph SE1.9 kmh SE 3.5 mph5.6 kmh 30.11 in1019.6 mb - 0.00 in0.0 mm 0.12 in3.0 mm
10:30 AM 43.5°F6.4°C 41.3°F5.2°C 92% 1.2 mph SE1.9 kmh SE 4.6 mph7.4 kmh 30.11 in1019.6 mb - 0.00 in0.0 mm 0.12 in3.0 mm
10:40 AM 43.8°F6.6°C 41.3°F5.2°C 91% 2.3 mph SE3.7 kmh SE 5.8 mph9.3 kmh 30.11 in1019.6 mb - 0.00 in0.0 mm 0.12 in3.0 mm
10:50 AM 44.1°F6.7°C 41.4°F5.2°C 90% 1.2 mph SE1.9 kmh SE 3.5 mph5.6 kmh 30.12 in1020.0 mb - 0.00 in0.0 mm 0.12 in3.0 mm
11:00 AM 44.0°F6.7°C 41.0°F5.0°C 89% 1.2 mph SE1.9 kmh SE 4.6 mph7.4 kmh 30.11 in1019.6 mb - 0.00 in0.0 mm 0.12 in3.0 mm
11:10 AM 44.6°F7.0°C 41.0°F5.0°C 87% 3.5 mph SE5.6 kmh SE 6.9 mph11.1 kmh 30.11 in1019.6 mb - 0.00 in0.0 mm 0.12 in3.0 mm
11:20 AM 44.8°F7.1°C 40.9°F4.9°C 86% 2.3 mph SE3.7 kmh SE 5.8 mph9.3 kmh 30.10 in1019.3 mb - 0.00 in0.0 mm 0.12 in3.0 mm
11:30 AM 44.8°F7.1°C 40.6°F4.8°C 85% 2.3 mph SE3.7 kmh SE 3.5 mph5.6 kmh 30.11 in1019.6 mb - 0.00 in0.0 mm 0.12 in3.0 mm
11:40 AM 44.9°F7.2°C 40.6°F4.8°C 85% 1.2 mph SE1.9 kmh SE 4.6 mph7.4 kmh 30.10 in1019.3 mb - 0.00 in0.0 mm 0.12 in3.0 mm
11:50 AM 45.2°F7.3°C 41.0°F5.0°C 85% 1.2 mph SSE1.9 kmh SSE 4.6 mph7.4 kmh 30.10 in1019.3 mb - 0.00 in0.0 mm 0.12 in3.0 mm
12:00 PM 45.6°F7.6°C 40.7°F4.8°C 83% 2.3 mph SE3.7 kmh SE 5.8 mph9.3 kmh 30.10 in1019.3 mb - 0.00 in0.0 mm 0.12 in3.0 mm
12:10 PM 45.6°F7.6°C 40.7°F4.8°C 83% 2.3 mph ESE3.7 kmh ESE 3.5 mph5.6 kmh 30.09 in1019.0 mb - 0.00 in0.0 mm 0.12 in3.0 mm
12:20 PM 45.6°F7.6°C 41.3°F5.2°C 85% Calm Calm 4.6 mph7.4 kmh 30.09 in1019.0 mb - 0.00 in0.0 mm 0.12 in3.0 mm
12:30 PM 45.2°F7.3°C 41.0°F5.0°C 85% Calm Calm 2.3 mph3.7 kmh 30.09 in1019.0 mb - 0.00 in0.0 mm 0.12 in3.0 mm
12:40 PM 45.1°F7.3°C 40.6°F4.8°C 84% Calm Calm -- 30.09 in1019.0 mb - 0.00 in0.0 mm 0.12 in3.0 mm
12:50 PM 45.1°F7.3°C 40.6°F4.8°C 84% Calm Calm 1.2 mph1.9 kmh 30.09 in1019.0 mb - 0.00 in0.0 mm 0.12 in3.0 mm
01:00 PM 45.4°F7.4°C 41.2°F5.1°C 85% 1.2 mph SSE1.9 kmh SSE 3.5 mph5.6 kmh 30.08 in1018.6 mb - 0.00 in0.0 mm 0.12 in3.0 mm
01:10 PM 45.6°F7.6°C 41.4°F5.2°C 85% Calm Calm 3.5 mph5.6 kmh 30.07 in1018.3 mb - 0.00 in0.0 mm 0.12 in3.0 mm
01:20 PM 45.7°F7.6°C 41.1°F5.1°C 84% 1.2 mph SSE1.9 kmh SSE 3.5 mph5.6 kmh 30.08 in1018.6 mb - 0.00 in0.0 mm 0.12 in3.0 mm
01:30 PM 46.1°F7.8°C 41.5°F5.3°C 84% Calm Calm 3.5 mph5.6 kmh 30.08 in1018.6 mb - 0.00 in0.0 mm 0.12 in3.0 mm
01:40 PM 46.0°F7.8°C 41.4°F5.2°C 84% 1.2 mph SSE1.9 kmh SSE 3.5 mph5.6 kmh 30.07 in1018.3 mb - 0.00 in0.0 mm 0.12 in3.0 mm
01:50 PM 45.9°F7.7°C 41.4°F5.2°C 84% 1.2 mph SSE1.9 kmh SSE 1.2 mph1.9 kmh 30.07 in1018.3 mb - 0.00 in0.0 mm 0.12 in3.0 mm
02:00 PM 46.2°F7.9°C 41.3°F5.2°C 83% 1.2 mph SSE1.9 kmh SSE 3.5 mph5.6 kmh 30.07 in1018.3 mb - 0.00 in0.0 mm 0.12 in3.0 mm
02:10 PM 46.3°F7.9°C 41.1°F5.1°C 82% Calm Calm 2.3 mph3.7 kmh 30.07 in1018.3 mb - 0.00 in0.0 mm 0.12 in3.0 mm
02:20 PM 46.6°F8.1°C 41.4°F5.2°C 82% Calm Calm -- 30.07 in1018.3 mb - 0.00 in0.0 mm 0.12 in3.0 mm
02:30 PM 46.7°F8.2°C 41.2°F5.1°C 81% Calm Calm -- 30.07 in1018.3 mb - 0.00 in0.0 mm 0.12 in3.0 mm
02:40 PM 47.1°F8.4°C 41.2°F5.1°C 80% 1.2 mph SE1.9 kmh SE 3.5 mph5.6 kmh 30.06 in1017.9 mb - 0.00 in0.0 mm 0.12 in3.0 mm
02:50 PM 47.3°F8.5°C 41.1°F5.1°C 79% Calm Calm 3.5 mph5.6 kmh 30.06 in1017.9 mb - 0.00 in0.0 mm 0.12 in3.0 mm
03:00 PM 47.9°F8.8°C 41.7°F5.4°C 79% Calm Calm 3.5 mph5.6 kmh 30.05 in1017.6 mb - 0.00 in0.0 mm 0.12 in3.0 mm
03:10 PM 48.3°F9.1°C 41.4°F5.2°C 77% 2.3 mph SSE3.7 kmh SSE 3.5 mph5.6 kmh 30.05 in1017.6 mb - 0.00 in0.0 mm 0.12 in3.0 mm
03:20 PM 49.3°F9.6°C 42.1°F5.6°C 76% 2.3 mph SE3.7 kmh SE 4.6 mph7.4 kmh 30.06 in1017.9 mb - 0.00 in0.0 mm 0.12 in3.0 mm
03:30 PM 49.0°F9.4°C 41.4°F5.2°C 75% 1.2 mph SSE1.9 kmh SSE 4.6 mph7.4 kmh 30.06 in1017.9 mb - 0.00 in0.0 mm 0.12 in3.0 mm
03:40 PM 48.9°F9.4°C 42.0°F5.6°C 77% 1.2 mph SE1.9 kmh SE 3.5 mph5.6 kmh 30.06 in1017.9 mb - 0.00 in0.0 mm 0.12 in3.0 mm
03:50 PM 48.9°F9.4°C 41.3°F5.2°C 75% 1.2 mph SE1.9 kmh SE 3.5 mph5.6 kmh 30.06 in1017.9 mb - 0.00 in0.0 mm 0.12 in3.0 mm
04:00 PM 48.9°F9.4°C 41.7°F5.4°C 76% Calm Calm 3.5 mph5.6 kmh 30.06 in1017.9 mb - 0.00 in0.0 mm 0.12 in3.0 mm
04:10 PM 48.7°F9.3°C 41.1°F5.1°C 75% Calm Calm 3.5 mph5.6 kmh 30.06 in1017.9 mb - 0.00 in0.0 mm 0.12 in3.0 mm
04:20 PM 48.6°F9.2°C 41.1°F5.1°C 75% 1.2 mph SSE1.9 kmh SSE 3.5 mph5.6 kmh 30.06 in1017.9 mb - 0.00 in0.0 mm 0.12 in3.0 mm
04:30 PM 48.6°F9.2°C 40.7°F4.8°C 74% 1.2 mph SSE1.9 kmh SSE 4.6 mph7.4 kmh 30.07 in1018.3 mb - 0.00 in0.0 mm 0.12 in3.0 mm
04:40 PM 48.4°F9.1°C 40.9°F4.9°C 75% Calm Calm 2.3 mph3.7 kmh 30.07 in1018.3 mb - 0.00 in0.0 mm 0.12 in3.0 mm
04:50 PM 48.4°F9.1°C 40.8°F4.9°C 75% 1.2 mph SSE1.9 kmh SSE 3.5 mph5.6 kmh 30.07 in1018.3 mb - 0.00 in0.0 mm 0.12 in3.0 mm
05:00 PM 48.4°F9.1°C 41.2°F5.1°C 76% Calm Calm 2.3 mph3.7 kmh 30.07 in1018.3 mb - 0.00 in0.0 mm 0.12 in3.0 mm
05:10 PM 48.3°F9.1°C 40.8°F4.9°C 75% Calm Calm 2.3 mph3.7 kmh 30.08 in1018.6 mb - 0.00 in0.0 mm 0.12 in3.0 mm
05:20 PM 48.3°F9.1°C 41.1°F5.1°C 76% 1.2 mph SSE1.9 kmh SSE 3.5 mph5.6 kmh 30.08 in1018.6 mb - 0.00 in0.0 mm 0.12 in3.0 mm
05:30 PM 48.3°F9.1°C 41.1°F5.1°C 76% Calm Calm -- 30.08 in1018.6 mb - 0.00 in0.0 mm 0.12 in3.0 mm
05:40 PM 48.1°F8.9°C 40.5°F4.7°C 75% 1.2 mph SSE1.9 kmh SSE 2.3 mph3.7 kmh 30.08 in1018.6 mb - 0.00 in0.0 mm 0.12 in3.0 mm
05:50 PM 47.8°F8.8°C 40.6°F4.8°C 76% 1.2 mph SSE1.9 kmh SSE 2.3 mph3.7 kmh 30.08 in1018.6 mb - 0.00 in0.0 mm 0.12 in3.0 mm
06:00 PM 47.6°F8.7°C 40.8°F4.9°C 77% Calm Calm -- 30.09 in1019.0 mb - 0.00 in0.0 mm 0.12 in3.0 mm
06:10 PM 47.5°F8.6°C 40.6°F4.8°C 77% Calm Calm -- 30.09 in1019.0 mb - 0.00 in0.0 mm 0.12 in3.0 mm
06:20 PM 47.3°F8.5°C 40.5°F4.7°C 77% Calm Calm -- 30.10 in1019.3 mb - 0.00 in0.0 mm 0.12 in3.0 mm
06:30 PM 47.2°F8.4°C 40.4°F4.7°C 77% Calm Calm -- 30.10 in1019.3 mb - 0.00 in0.0 mm 0.12 in3.0 mm
06:40 PM 47.3°F8.5°C 40.5°F4.7°C 77% Calm Calm -- 30.10 in1019.3 mb - 0.00 in0.0 mm 0.12 in3.0 mm
06:50 PM 47.1°F8.4°C 40.3°F4.6°C 77% Calm Calm -- 30.10 in1019.3 mb - 0.00 in0.0 mm 0.12 in3.0 mm
07:00 PM 46.7°F8.2°C 40.5°F4.7°C 79% Calm Calm -- 30.10 in1019.3 mb - 0.00 in0.0 mm 0.12 in3.0 mm
07:10 PM 46.3°F7.9°C 40.1°F4.5°C 79% Calm Calm -- 30.11 in1019.6 mb - 0.00 in0.0 mm 0.12 in3.0 mm
07:20 PM 45.8°F7.7°C 39.7°F4.3°C 79% Calm Calm -- 30.11 in1019.6 mb - 0.00 in0.0 mm 0.12 in3.0 mm
07:30 PM 45.2°F7.3°C 39.7°F4.3°C 81% Calm Calm -- 30.12 in1020.0 mb - 0.00 in0.0 mm 0.12 in3.0 mm
07:40 PM 44.8°F7.1°C 39.3°F4.1°C 81% Calm Calm -- 30.12 in1020.0 mb - 0.00 in0.0 mm 0.12 in3.0 mm
07:50 PM 44.5°F6.9°C 39.0°F3.9°C 81% Calm Calm -- 30.12 in1020.0 mb - 0.00 in0.0 mm 0.12 in3.0 mm
08:00 PM 44.2°F6.8°C 39.4°F4.1°C 83% Calm Calm -- 30.12 in1020.0 mb - 0.00 in0.0 mm 0.12 in3.0 mm
08:10 PM 44.0°F6.7°C 39.5°F4.2°C 84% Calm Calm -- 30.13 in1020.3 mb - 0.00 in0.0 mm 0.12 in3.0 mm
08:20 PM 43.8°F6.6°C 39.0°F3.9°C 83% Calm Calm -- 30.13 in1020.3 mb - 0.00 in0.0 mm 0.12 in3.0 mm
08:30 PM 43.4°F6.3°C 38.6°F3.7°C 83% Calm Calm -- 30.13 in1020.3 mb - 0.00 in0.0 mm 0.12 in3.0 mm
08:40 PM 43.1°F6.2°C 38.6°F3.7°C 84% Calm Calm -- 30.13 in1020.3 mb - 0.00 in0.0 mm 0.12 in3.0 mm
08:50 PM 42.8°F6.0°C 38.3°F3.5°C 84% Calm Calm -- 30.14 in1020.7 mb - 0.00 in0.0 mm 0.12 in3.0 mm
09:00 PM 42.6°F5.9°C 38.4°F3.6°C 85% Calm Calm -- 30.14 in1020.7 mb - 0.00 in0.0 mm 0.12 in3.0 mm
09:10 PM 42.4°F5.8°C 38.5°F3.6°C 86% Calm Calm -- 30.14 in1020.7 mb - 0.00 in0.0 mm 0.12 in3.0 mm
09:20 PM 42.2°F5.7°C 38.3°F3.5°C 86% Calm Calm -- 30.14 in1020.7 mb - 0.00 in0.0 mm 0.12 in3.0 mm
09:30 PM 41.8°F5.4°C 37.7°F3.2°C 85% Calm Calm -- 30.15 in1021.0 mb - 0.00 in0.0 mm 0.12 in3.0 mm
09:40 PM 41.4°F5.2°C 37.2°F2.9°C 85% Calm Calm 2.3 mph3.7 kmh 30.15 in1021.0 mb - 0.00 in0.0 mm 0.12 in3.0 mm
09:50 PM 41.4°F5.2°C 36.9°F2.7°C 84% Calm Calm -- 30.16 in1021.3 mb - 0.00 in0.0 mm 0.12 in3.0 mm
10:00 PM 42.1°F5.6°C 36.4°F2.4°C 80% Calm Calm -- 30.16 in1021.3 mb - 0.00 in0.0 mm 0.12 in3.0 mm
10:10 PM 41.9°F5.5°C 35.8°F2.1°C 79% Calm Calm -- 30.16 in1021.3 mb - 0.00 in0.0 mm 0.12 in3.0 mm
10:20 PM 41.6°F5.3°C 35.2°F1.8°C 78% Calm Calm 1.2 mph1.9 kmh 30.16 in1021.3 mb - 0.00 in0.0 mm 0.12 in3.0 mm
10:30 PM 41.3°F5.2°C 35.0°F1.7°C 78% Calm Calm 1.2 mph1.9 kmh 30.17 in1021.7 mb - 0.00 in0.0 mm 0.12 in3.0 mm
10:40 PM 41.2°F5.1°C 34.9°F1.6°C 78% Calm Calm 1.2 mph1.9 kmh 30.16 in1021.3 mb - 0.00 in0.0 mm 0.12 in3.0 mm
10:50 PM 41.4°F5.2°C 34.7°F1.5°C 77% Calm Calm -- 30.17 in1021.7 mb - 0.00 in0.0 mm 0.12 in3.0 mm
11:00 PM 41.3°F5.2°C 34.7°F1.5°C 77% Calm Calm -- 30.17 in1021.7 mb - 0.00 in0.0 mm 0.12 in3.0 mm
11:10 PM 41.0°F5.0°C 34.7°F1.5°C 78% Calm Calm -- 30.18 in1022.0 mb - 0.00 in0.0 mm 0.12 in3.0 mm
11:20 PM 40.8°F4.9°C 34.5°F1.4°C 78% Calm Calm 1.2 mph1.9 kmh 30.18 in1022.0 mb - 0.00 in0.0 mm 0.12 in3.0 mm
11:30 PM 41.1°F5.1°C 34.4°F1.3°C 77% Calm Calm -- 30.18 in1022.0 mb - 0.00 in0.0 mm 0.12 in3.0 mm
11:40 PM 41.4°F5.2°C 34.4°F1.3°C 76% Calm Calm -- 30.18 in1022.0 mb - 0.00 in0.0 mm 0.12 in3.0 mm
11:50 PM 41.3°F5.2°C 34.3°F1.3°C 76% Calm Calm -- 30.18 in1022.0 mb - 0.00 in0.0 mm 0.12 in3.0 mm